createdAt,value
2023-02-08T00:01:27.050Z,14.83
2023-02-08T00:04:13.853Z,13.83
2023-02-08T00:07:00.671Z,14.87
2023-02-08T00:09:47.556Z,14.00
2023-02-08T00:12:34.777Z,12.37
2023-02-08T00:15:21.766Z,14.23
2023-02-08T00:18:09.832Z,12.93
2023-02-08T00:20:57.415Z,12.87
2023-02-08T00:23:44.273Z,14.40
2023-02-08T00:26:31.184Z,13.53
2023-02-08T00:29:18.126Z,13.40
2023-02-08T00:32:05.213Z,11.83
2023-02-08T00:34:53.093Z,13.40
2023-02-08T00:37:39.977Z,11.97
2023-02-08T00:40:27.776Z,12.00
2023-02-08T00:43:14.469Z,11.77
2023-02-08T00:46:02.550Z,12.53
2023-02-08T00:48:49.680Z,12.17
2023-02-08T00:51:37.850Z,11.97
2023-02-08T00:54:24.780Z,11.73
2023-02-08T00:57:11.768Z,13.73
2023-02-08T00:59:58.208Z,12.40
2023-02-08T01:02:44.942Z,12.40
2023-02-08T01:05:31.856Z,13.60
2023-02-08T01:08:21.415Z,11.37
2023-02-08T01:11:10.743Z,12.27
2023-02-08T01:13:58.646Z,11.40
2023-02-08T01:16:45.671Z,12.33
2023-02-08T01:19:33.857Z,11.67
2023-02-08T01:22:23.085Z,11.13
2023-02-08T01:25:11.332Z,11.90
2023-02-08T01:27:57.961Z,10.73
2023-02-08T01:30:44.731Z,12.53
2023-02-08T01:33:31.352Z,10.60
2023-02-08T01:36:20.112Z,10.73
2023-02-08T01:39:08.723Z,11.10
2023-02-08T01:41:56.608Z,11.60
2023-02-08T01:45:30.044Z,10.27
2023-02-08T01:48:21.362Z,11.20
2023-02-08T01:51:12.214Z,11.63
2023-02-08T01:54:01.845Z,11.33
2023-02-08T01:56:49.897Z,12.10
2023-02-08T01:59:43.091Z,11.97
2023-02-08T02:02:30.280Z,13.43
2023-02-08T02:05:18.658Z,11.77
2023-02-08T02:08:06.962Z,11.47
2023-02-08T02:10:53.839Z,11.10
2023-02-08T02:13:41.461Z,11.17
2023-02-08T02:16:29.792Z,10.97
2023-02-08T02:19:27.591Z,12.27
2023-02-08T02:22:40.933Z,11.23
2023-02-08T02:25:59.436Z,11.83
2023-02-08T02:29:23.589Z,13.07
2023-02-08T02:32:21.041Z,12.30
2023-02-08T02:35:20.346Z,13.43
2023-02-08T02:38:15.587Z,11.87
2023-02-08T02:41:10.485Z,12.07
2023-02-08T02:44:00.326Z,10.30
2023-02-08T02:46:54.999Z,12.33
2023-02-08T02:49:51.704Z,12.13
2023-02-08T02:52:43.913Z,10.37
2023-02-08T02:55:34.085Z,13.57
2023-02-08T02:58:23.039Z,11.50
2023-02-08T03:01:09.678Z,11.65
2023-02-08T03:03:56.770Z,12.25
2023-02-08T03:06:59.505Z,13.65
2023-02-08T03:10:03.080Z,10.83
2023-02-08T03:12:59.568Z,11.50
2023-02-08T03:15:59.512Z,12.93
2023-02-08T03:19:00.519Z,11.80
2023-02-08T03:21:56.117Z,10.70
2023-02-08T03:24:51.173Z,12.65
2023-02-08T03:27:46.084Z,12.75
2023-02-08T03:30:45.411Z,11.68
2023-02-08T03:33:36.288Z,12.40
2023-02-08T03:36:28.673Z,11.15
2023-02-08T03:39:20.966Z,11.63
2023-02-08T03:42:15.585Z,12.25
2023-02-08T03:45:06.810Z,11.68
2023-02-08T03:47:58.243Z,11.43
2023-02-08T03:50:50.388Z,10.90
2023-02-08T03:53:40.635Z,11.02
2023-02-08T03:56:37.639Z,12.43
2023-02-08T03:59:29.401Z,12.38
2023-02-08T04:02:21.312Z,12.00
2023-02-08T04:05:09.162Z,11.43
2023-02-08T04:07:55.723Z,9.43
2023-02-08T04:10:42.877Z,12.27
2023-02-08T04:13:31.363Z,10.90
2023-02-08T04:16:18.028Z,11.75
2023-02-08T04:19:04.833Z,11.40
2023-02-08T04:21:51.757Z,10.73
2023-02-08T04:24:38.292Z,11.70
2023-02-08T04:27:24.967Z,10.73
2023-02-08T04:30:14.378Z,10.25
2023-02-08T04:33:01.136Z,11.35
2023-02-08T04:35:47.827Z,10.50
2023-02-08T04:38:34.795Z,10.63
2023-02-08T04:41:21.682Z,12.20
2023-02-08T04:44:08.305Z,11.95
2023-02-08T04:46:56.451Z,10.63
2023-02-08T04:49:43.330Z,11.40
2023-02-08T04:52:30.214Z,11.50
2023-02-08T04:55:16.953Z,9.70
2023-02-08T04:58:03.987Z,10.93
2023-02-08T05:00:50.878Z,9.60
2023-02-08T05:03:38.816Z,10.45
2023-02-08T05:06:25.532Z,11.00
2023-02-08T05:09:12.221Z,9.60
2023-02-08T05:11:58.920Z,11.05
2023-02-08T05:14:45.912Z,10.90
2023-02-08T05:17:32.649Z,10.57
2023-02-08T05:20:21.687Z,10.85
2023-02-08T05:23:08.245Z,10.95
2023-02-08T05:25:55.070Z,10.38
2023-02-08T05:28:41.757Z,11.95
2023-02-08T05:31:28.653Z,10.05
2023-02-08T05:34:15.600Z,9.95
2023-02-08T05:37:03.784Z,10.45
2023-02-08T05:39:50.542Z,10.90
2023-02-08T05:42:37.291Z,10.90
2023-02-08T05:45:24.107Z,9.95
2023-02-08T05:48:10.920Z,9.82
2023-02-08T05:50:58.155Z,11.23
2023-02-08T05:53:45.859Z,11.13
2023-02-08T05:56:32.980Z,10.00
2023-02-08T05:59:19.633Z,10.35
2023-02-08T06:02:06.462Z,11.20
2023-02-08T06:04:53.213Z,10.30
2023-02-08T06:07:40.150Z,10.50
2023-02-08T06:10:28.410Z,10.43
2023-02-08T06:13:16.011Z,11.65
2023-02-08T06:16:02.826Z,11.70
2023-02-08T06:18:49.600Z,10.30
2023-02-08T06:21:36.389Z,10.25
2023-02-08T06:24:23.164Z,10.45
2023-02-08T06:27:11.528Z,10.90
2023-02-08T06:29:58.411Z,10.90
2023-02-08T06:32:45.180Z,10.30
2023-02-08T06:35:32.861Z,11.43
2023-02-08T06:38:19.543Z,11.25
2023-02-08T06:41:06.732Z,12.10
2023-02-08T06:43:54.536Z,10.13
2023-02-08T06:46:41.436Z,11.02
2023-02-08T06:49:28.201Z,10.68
2023-02-08T06:52:15.074Z,11.32
2023-02-08T06:55:01.842Z,11.23
2023-02-08T06:57:48.771Z,11.27
2023-02-08T07:00:39.431Z,12.90
2023-02-08T07:03:26.180Z,13.10
2023-02-08T07:06:14.208Z,12.30
2023-02-08T07:09:02.950Z,12.90
2023-02-08T07:11:50.874Z,12.47
2023-02-08T07:14:40.975Z,12.07
2023-02-08T07:17:31.463Z,12.30
2023-02-08T07:20:20.563Z,12.87
2023-02-08T07:23:08.370Z,11.90
2023-02-08T07:26:00.829Z,12.75
2023-02-08T07:28:48.704Z,12.70
2023-02-08T07:31:36.989Z,12.57
2023-02-08T07:34:26.674Z,11.87
2023-02-08T07:37:19.545Z,14.17
2023-02-08T07:40:07.100Z,12.50
2023-02-08T07:42:53.743Z,13.70
2023-02-08T07:45:50.618Z,12.73
2023-02-08T07:48:40.100Z,12.83
2023-02-08T07:51:28.432Z,13.17
2023-02-08T07:54:15.103Z,11.83
2023-02-08T07:57:03.673Z,13.60
2023-02-08T07:59:51.289Z,13.50
2023-02-08T08:02:38.634Z,13.43
2023-02-08T08:05:25.350Z,12.87
2023-02-08T08:08:14.151Z,13.87
2023-02-08T08:11:03.436Z,13.73
2023-02-08T08:13:50.920Z,13.23
2023-02-08T08:16:37.720Z,13.47
2023-02-08T08:19:24.497Z,12.97
2023-02-08T08:22:11.089Z,13.40
2023-02-08T08:25:00.145Z,13.43
2023-02-08T08:27:47.050Z,13.43
2023-02-08T08:30:33.778Z,13.97
2023-02-08T08:33:21.247Z,13.67
2023-02-08T08:36:08.873Z,13.63
2023-02-08T08:38:55.775Z,14.57
2023-02-08T08:41:44.106Z,13.03
2023-02-08T08:44:30.901Z,13.27
2023-02-08T08:47:17.861Z,14.83
2023-02-08T08:50:04.886Z,13.90
2023-02-08T08:52:51.331Z,13.97
2023-02-08T08:55:38.116Z,15.77
2023-02-08T08:58:26.505Z,14.07
2023-02-08T09:01:14.250Z,13.70
2023-02-08T09:04:01.325Z,14.50
2023-02-08T09:06:47.841Z,15.60
2023-02-08T09:09:34.645Z,43.73
2023-02-08T09:12:21.267Z,16.20
2023-02-08T09:15:10.067Z,16.67
2023-02-08T09:17:57.116Z,16.67
2023-02-08T09:20:44.356Z,15.67
2023-02-08T09:23:31.320Z,17.17
2023-02-08T09:26:20.740Z,16.53
2023-02-08T09:29:07.815Z,17.03
2023-02-08T09:31:55.660Z,17.63
2023-02-08T09:34:42.311Z,16.60
2023-02-08T09:37:29.437Z,16.83
2023-02-08T09:40:24.104Z,16.40
2023-02-08T09:43:14.239Z,17.03
2023-02-08T09:46:06.577Z,16.97
2023-02-08T09:48:59.462Z,15.40
2023-02-08T09:51:52.471Z,15.33
2023-02-08T09:54:44.680Z,15.90
2023-02-08T09:57:36.083Z,14.77
2023-02-08T10:00:29.093Z,13.17
2023-02-08T10:03:26.738Z,16.80
2023-02-08T10:06:17.476Z,14.60
2023-02-08T10:09:07.467Z,16.20
2023-02-08T10:12:07.078Z,14.87
2023-02-08T10:15:03.065Z,16.37
2023-02-08T10:18:05.658Z,12.43
2023-02-08T10:21:04.924Z,16.80
2023-02-08T10:24:15.041Z,15.50
2023-02-08T10:27:11.806Z,15.20
2023-02-08T10:30:12.033Z,15.53
2023-02-08T10:33:02.497Z,16.30
2023-02-08T10:35:51.750Z,16.70
2023-02-08T10:38:46.770Z,17.30
2023-02-08T10:41:38.181Z,16.33
2023-02-08T10:44:32.181Z,17.63
2023-02-08T10:47:26.745Z,15.87
2023-02-08T10:50:21.966Z,15.83
2023-02-08T10:53:15.921Z,17.77
2023-02-08T10:56:02.697Z,16.70
2023-02-08T10:58:50.946Z,18.23
2023-02-08T11:01:37.567Z,16.30
2023-02-08T11:04:24.433Z,15.80
2023-02-08T11:07:22.286Z,15.63
2023-02-08T11:10:24.782Z,16.57
2023-02-08T11:13:19.188Z,16.63
2023-02-08T11:16:08.988Z,17.17
2023-02-08T11:18:58.279Z,15.73
2023-02-08T11:21:51.998Z,17.03
2023-02-08T11:24:41.620Z,15.93
2023-02-08T11:27:34.678Z,16.60
2023-02-08T11:30:24.437Z,18.43
2023-02-08T11:33:23.397Z,17.67
2023-02-08T11:36:14.650Z,17.17
2023-02-08T11:39:03.564Z,15.27
2023-02-08T11:41:52.796Z,18.00
2023-02-08T11:44:45.938Z,17.40
2023-02-08T11:47:35.768Z,18.40
2023-02-08T11:50:27.828Z,17.30
2023-02-08T11:53:27.829Z,14.33
2023-02-08T11:56:20.898Z,17.83
2023-02-08T11:59:20.340Z,17.43
2023-02-08T12:02:28.453Z,16.40
2023-02-08T12:05:19.017Z,16.60
2023-02-08T12:08:14.866Z,17.73
2023-02-08T12:11:13.888Z,16.03
2023-02-08T12:14:28.372Z,14.63
2023-02-08T12:17:47.649Z,16.33
2023-02-08T12:20:42.296Z,16.03
2023-02-08T12:23:49.688Z,17.33
2023-02-08T12:27:02.578Z,15.60
2023-02-08T12:29:56.897Z,17.33
2023-02-08T12:32:58.298Z,16.43
2023-02-08T12:36:05.581Z,16.30
2023-02-08T12:39:48.167Z,16.93
2023-02-08T12:42:55.823Z,16.90
2023-02-08T12:46:01.377Z,17.43
2023-02-08T12:49:08.254Z,17.43
2023-02-08T12:52:04.136Z,18.47
2023-02-08T12:54:58.197Z,17.67
2023-02-08T12:57:49.119Z,17.53
2023-02-08T13:00:42.355Z,17.97
2023-02-08T13:03:43.119Z,16.70
2023-02-08T13:06:37.374Z,16.60
2023-02-08T13:09:40.258Z,16.80
2023-02-08T13:12:32.125Z,16.37
2023-02-08T13:15:42.223Z,15.97
2023-02-08T13:18:34.250Z,14.17
2023-02-08T13:21:23.956Z,15.93
2023-02-08T13:24:27.678Z,13.77
2023-02-08T13:27:17.885Z,14.67
2023-02-08T13:30:07.441Z,15.20
2023-02-08T13:32:56.463Z,14.33
2023-02-08T13:35:43.540Z,16.20
2023-02-08T13:38:32.954Z,16.30
2023-02-08T13:41:21.848Z,15.27
2023-02-08T13:44:17.907Z,16.03
2023-02-08T13:47:07.384Z,15.50
2023-02-08T13:49:57.151Z,15.47
2023-02-08T13:52:53.953Z,16.07
2023-02-08T13:55:56.066Z,17.10
2023-02-08T13:59:04.690Z,15.13
2023-02-08T14:02:23.683Z,14.83
2023-02-08T14:05:35.707Z,13.93
2023-02-08T14:08:25.812Z,13.87
2023-02-08T14:11:18.157Z,15.23
2023-02-08T14:14:14.724Z,16.13
2023-02-08T14:17:19.208Z,15.77
2023-02-08T14:20:09.049Z,15.53
2023-02-08T14:22:58.125Z,14.80
2023-02-08T14:25:48.242Z,15.87
2023-02-08T14:28:38.594Z,16.43
2023-02-08T14:31:38.255Z,16.20
2023-02-08T14:34:34.897Z,15.07
2023-02-08T14:37:31.360Z,16.47
2023-02-08T14:40:50.656Z,16.00
2023-02-08T14:43:38.352Z,15.27
2023-02-08T14:46:45.654Z,15.20
2023-02-08T14:49:39.226Z,16.53
2023-02-08T14:52:27.297Z,14.60
2023-02-08T14:55:20.486Z,16.00
2023-02-08T14:58:08.580Z,14.80
2023-02-08T15:00:57.380Z,15.17
2023-02-08T15:03:46.348Z,15.10
2023-02-08T15:07:01.723Z,15.20
2023-02-08T15:09:48.961Z,14.30
2023-02-08T15:12:39.674Z,14.80
2023-02-08T15:15:29.727Z,14.30
2023-02-08T15:18:21.146Z,15.80
2023-02-08T15:21:16.618Z,15.20
2023-02-08T15:24:06.034Z,15.97
2023-02-08T15:26:55.131Z,15.83
2023-02-08T15:29:45.673Z,17.57
2023-02-08T15:32:32.592Z,16.37
2023-02-08T15:35:23.084Z,15.77
2023-02-08T15:38:18.361Z,14.70
2023-02-08T15:41:08.082Z,16.00
2023-02-08T15:44:04.291Z,15.73
2023-02-08T15:49:43.694Z,14.67
2023-02-08T15:52:32.891Z,14.87
2023-02-08T15:55:19.978Z,17.33
2023-02-08T15:58:09.670Z,15.90
2023-02-08T16:00:58.501Z,14.33
2023-02-08T16:03:50.518Z,15.33
2023-02-08T16:06:40.386Z,15.07
2023-02-08T16:09:30.346Z,15.13
2023-02-08T16:12:22.134Z,15.57
2023-02-08T16:15:38.704Z,17.07
2023-02-08T16:18:39.340Z,19.57
2023-02-08T16:21:35.962Z,17.50
2023-02-08T16:24:26.607Z,18.77
2023-02-08T16:27:25.596Z,18.97
2023-02-08T16:30:19.227Z,16.80
2023-02-08T16:33:10.158Z,17.13
2023-02-08T16:36:01.975Z,16.10
2023-02-08T16:39:28.152Z,14.83
2023-02-08T16:42:33.920Z,15.97
2023-02-08T16:45:22.728Z,14.60
2023-02-08T16:48:28.874Z,14.83
2023-02-08T16:51:19.100Z,14.97
2023-02-08T16:54:08.103Z,14.40
2023-02-08T16:57:00.054Z,13.93
2023-02-08T16:59:46.816Z,15.53
2023-02-08T17:02:33.631Z,16.67
2023-02-08T17:05:22.508Z,15.93
2023-02-08T17:08:14.165Z,17.20
2023-02-08T17:11:02.434Z,16.60
2023-02-08T17:13:49.008Z,17.67
2023-02-08T17:16:37.045Z,14.63
2023-02-08T17:19:23.605Z,17.17
2023-02-08T17:22:10.285Z,17.80
2023-02-08T17:24:57.107Z,18.90
2023-02-08T17:27:45.392Z,24.33
2023-02-08T17:30:34.053Z,30.57
2023-02-08T17:33:20.759Z,35.17
2023-02-08T17:36:09.529Z,98.20
2023-02-08T17:38:56.113Z,57.37
2023-02-08T17:41:42.881Z,46.07
2023-02-08T17:44:30.900Z,47.07
2023-02-08T17:47:17.823Z,22.40
2023-02-08T17:50:04.686Z,21.63
2023-02-08T17:52:52.597Z,17.40
2023-02-08T17:55:45.445Z,17.40
2023-02-08T17:58:32.968Z,15.03
2023-02-08T18:01:23.699Z,16.43
2023-02-08T18:04:11.647Z,15.30
2023-02-08T18:06:58.166Z,14.83
2023-02-08T18:09:44.879Z,20.93
2023-02-08T18:12:31.713Z,29.77
2023-02-08T18:15:20.914Z,20.90
2023-02-08T18:18:09.083Z,21.83
2023-02-08T18:20:56.756Z,15.67
2023-02-08T18:23:44.144Z,15.73
2023-02-08T18:26:33.645Z,15.23
2023-02-08T18:29:20.451Z,15.60
2023-02-08T18:32:07.404Z,16.03
2023-02-08T18:34:56.904Z,15.03
2023-02-08T18:37:44.368Z,16.57
2023-02-08T18:40:32.274Z,15.90
2023-02-08T18:43:19.720Z,16.13
2023-02-08T18:46:09.994Z,16.23
2023-02-08T18:48:56.756Z,16.23
2023-02-08T18:51:45.888Z,14.47
2023-02-08T18:54:32.342Z,17.20
2023-02-08T18:57:19.417Z,18.70
2023-02-08T19:00:06.571Z,17.80
2023-02-08T19:02:53.111Z,26.87
2023-02-08T19:05:41.836Z,22.80
2023-02-08T19:08:30.177Z,19.57
2023-02-08T19:11:19.884Z,18.20
2023-02-08T19:14:09.094Z,18.80
2023-02-08T19:16:55.964Z,16.97
2023-02-08T19:19:44.602Z,16.23
2023-02-08T19:22:31.124Z,16.70
2023-02-08T19:25:20.958Z,17.03
2023-02-08T19:28:08.202Z,17.13
2023-02-08T19:31:03.714Z,17.33
2023-02-08T19:33:53.611Z,18.63
2023-02-08T19:36:44.169Z,17.47
2023-02-08T19:39:31.013Z,15.97
2023-02-08T19:42:19.635Z,16.03
2023-02-08T19:45:06.814Z,16.03
2023-02-08T19:47:55.069Z,20.13
2023-02-08T19:50:42.927Z,17.40
2023-02-08T19:53:30.517Z,15.13
2023-02-08T19:56:19.293Z,16.10
2023-02-08T19:59:09.961Z,16.20
2023-02-08T20:01:56.979Z,15.43
2023-02-08T20:04:43.619Z,15.07
2023-02-08T20:07:30.753Z,18.33
2023-02-08T20:10:17.575Z,16.00
2023-02-08T20:13:04.455Z,15.47
2023-02-08T20:15:59.745Z,15.63
2023-02-08T20:18:46.410Z,16.27
2023-02-08T20:21:39.642Z,17.70
2023-02-08T20:24:26.167Z,14.53
2023-02-08T20:27:13.150Z,14.77
2023-02-08T20:30:00.062Z,15.20
2023-02-08T20:32:48.433Z,14.87
2023-02-08T20:35:37.097Z,15.93
2023-02-08T20:38:23.770Z,14.10
2023-02-08T20:41:13.302Z,13.80
2023-02-08T20:43:59.781Z,13.97
2023-02-08T20:46:46.764Z,14.67
2023-02-08T20:49:34.834Z,13.17
2023-02-08T20:52:21.676Z,13.20
2023-02-08T20:55:09.461Z,12.43
2023-02-08T20:57:56.330Z,13.43
2023-02-08T21:00:44.982Z,12.97
2023-02-08T21:03:32.519Z,12.27
2023-02-08T21:06:23.550Z,12.77
2023-02-08T21:09:13.384Z,12.83
2023-02-08T21:12:00.012Z,13.27
2023-02-08T21:14:46.856Z,12.03
2023-02-08T21:17:33.621Z,12.03
2023-02-08T21:20:20.619Z,11.57
2023-02-08T21:23:08.853Z,11.63
2023-02-08T21:25:55.394Z,12.10
2023-02-08T21:28:43.362Z,12.00
2023-02-08T21:31:30.439Z,11.57
2023-02-08T21:34:19.465Z,11.00
2023-02-08T21:37:06.234Z,12.43
2023-02-08T21:39:54.348Z,12.13
2023-02-08T21:42:41.098Z,12.27
2023-02-08T21:45:31.345Z,9.17
2023-02-08T21:48:20.526Z,11.00
2023-02-08T21:51:24.728Z,11.30
2023-02-08T21:54:33.954Z,10.03
2023-02-08T21:57:26.609Z,9.37
2023-02-08T22:00:25.124Z,10.27
2023-02-08T22:03:13.429Z,11.00
2023-02-08T22:06:23.232Z,10.10
2023-02-08T22:09:12.165Z,9.97
2023-02-08T22:12:02.189Z,11.00
2023-02-08T22:14:53.974Z,9.07
2023-02-08T22:17:49.105Z,9.53
2023-02-08T22:20:38.453Z,11.10
2023-02-08T22:23:27.568Z,10.97
2023-02-08T22:26:15.601Z,10.57
2023-02-08T22:29:04.680Z,10.07
2023-02-08T22:31:53.593Z,10.63
2023-02-08T22:34:41.876Z,9.80
2023-02-08T22:37:30.449Z,11.03
2023-02-08T22:40:19.341Z,9.20
2023-02-08T22:43:08.570Z,10.50
2023-02-08T22:46:01.409Z,9.70
2023-02-08T22:48:51.595Z,9.60
2023-02-08T22:51:39.467Z,9.80
2023-02-08T22:54:28.191Z,8.80
2023-02-08T22:57:14.735Z,9.67
2023-02-08T23:00:01.862Z,9.83
2023-02-08T23:02:48.478Z,10.00
2023-02-08T23:05:42.106Z,9.40
2023-02-08T23:08:28.975Z,9.87
2023-02-08T23:11:16.559Z,9.93
2023-02-08T23:14:04.133Z,10.30
2023-02-08T23:16:51.106Z,9.33
2023-02-08T23:19:38.219Z,9.90
2023-02-08T23:22:26.741Z,9.33
2023-02-08T23:25:13.285Z,10.47
2023-02-08T23:28:00.255Z,9.23
2023-02-08T23:30:48.536Z,9.80
2023-02-08T23:33:36.255Z,9.50
2023-02-08T23:36:24.474Z,9.50
2023-02-08T23:39:12.668Z,9.10
2023-02-08T23:41:59.522Z,9.97
2023-02-08T23:44:46.394Z,9.50
2023-02-08T23:47:33.483Z,9.33
2023-02-08T23:50:20.311Z,9.77
2023-02-08T23:53:09.313Z,8.73
2023-02-08T23:56:06.549Z,9.70
2023-02-08T23:58:56.080Z,9.27
